createdAt,value
2023-02-11T00:00:26.350Z,-0.10
2023-02-11T00:05:28.151Z,-0.10
2023-02-11T00:10:29.936Z,-0.20
2023-02-11T00:15:33.024Z,-0.20
2023-02-11T00:20:34.746Z,-0.30
2023-02-11T00:25:39.339Z,-0.30
2023-02-11T00:30:42.435Z,-0.20
2023-02-11T00:35:44.302Z,-0.10
2023-02-11T00:40:46.001Z,0.10
2023-02-11T00:45:49.627Z,0.20
2023-02-11T00:50:51.602Z,0.30
2023-02-11T00:55:53.330Z,0.40
2023-02-11T01:00:56.738Z,0.40
2023-02-11T01:05:58.570Z,0.40
2023-02-11T01:11:02.668Z,0.50
2023-02-11T01:16:07.147Z,0.60
2023-02-11T01:21:08.930Z,0.60
2023-02-11T01:26:10.703Z,0.70
2023-02-11T01:31:13.895Z,0.70
2023-02-11T01:36:15.748Z,0.90
2023-02-11T01:41:17.507Z,0.90
2023-02-11T01:46:32.762Z,1.00
2023-02-11T01:51:38.960Z,1.00
2023-02-11T01:56:45.142Z,1.00
2023-02-11T02:01:52.842Z,1.00
2023-02-11T02:07:00.387Z,1.10
2023-02-11T02:12:02.109Z,1.00
2023-02-11T02:17:05.272Z,1.00
2023-02-11T02:22:49.647Z,0.90
2023-02-11T02:27:56.773Z,0.90
2023-02-11T02:33:22.372Z,0.90
2023-02-11T02:38:30.558Z,0.90
2023-02-11T02:43:33.288Z,0.90
2023-02-11T02:48:36.421Z,0.90
2023-02-11T02:53:51.465Z,0.90
2023-02-11T02:59:27.056Z,1.00
2023-02-11T03:04:37.592Z,1.00
2023-02-11T03:09:44.907Z,1.00
2023-02-11T03:14:49.020Z,0.90
2023-02-11T03:19:52.180Z,1.00
2023-02-11T03:24:56.099Z,1.00
2023-02-11T03:30:05.124Z,1.00
2023-02-11T03:35:14.883Z,0.90
2023-02-11T03:40:21.039Z,0.90
2023-02-11T03:45:25.018Z,0.90
2023-02-11T03:50:32.549Z,0.90
2023-02-11T03:55:38.490Z,0.90
2023-02-11T04:00:42.159Z,1.10
2023-02-11T04:05:45.439Z,1.10
2023-02-11T04:10:47.216Z,1.20
2023-02-11T04:15:49.302Z,1.20
2023-02-11T04:20:52.416Z,1.20
2023-02-11T04:25:54.151Z,1.30
2023-02-11T04:30:56.363Z,1.30
2023-02-11T04:35:59.491Z,1.30
2023-02-11T04:41:01.355Z,1.30
2023-02-11T04:46:03.274Z,1.30
2023-02-11T04:51:06.766Z,1.20
2023-02-11T04:56:08.628Z,1.20
2023-02-11T05:01:12.659Z,1.10
2023-02-11T05:06:15.754Z,1.40
2023-02-11T05:11:19.412Z,1.40
2023-02-11T05:16:21.251Z,1.40
2023-02-11T05:21:24.582Z,1.30
2023-02-11T05:26:26.370Z,1.40
2023-02-11T05:31:28.157Z,1.40
2023-02-11T05:36:33.397Z,1.40
2023-02-11T05:41:35.395Z,1.40
2023-02-11T05:46:37.165Z,1.40
2023-02-11T05:51:40.338Z,1.40
2023-02-11T05:56:44.660Z,1.50
2023-02-11T06:01:46.622Z,1.40
2023-02-11T06:06:49.798Z,1.40
2023-02-11T06:11:52.578Z,1.50
2023-02-11T06:16:54.388Z,1.40
2023-02-11T06:21:57.867Z,1.50
2023-02-11T06:26:59.648Z,1.50
2023-02-11T06:32:01.652Z,1.60
2023-02-11T06:37:04.994Z,1.50
2023-02-11T06:42:08.010Z,1.50
2023-02-11T06:47:09.951Z,1.60
2023-02-11T06:52:13.002Z,1.60
2023-02-11T06:57:14.722Z,1.60
2023-02-11T07:02:18.506Z,1.60
2023-02-11T07:07:23.663Z,1.60
2023-02-11T07:12:25.423Z,1.60
2023-02-11T07:17:27.173Z,1.70
2023-02-11T07:22:30.402Z,1.60
2023-02-11T07:27:35.103Z,1.70
2023-02-11T07:32:36.660Z,1.70
2023-02-11T07:37:39.729Z,1.70
2023-02-11T07:42:41.394Z,1.80
2023-02-11T07:47:43.062Z,1.80
2023-02-11T07:52:46.193Z,1.90
2023-02-11T07:57:47.877Z,2.00
2023-02-11T08:02:49.555Z,2.10
2023-02-11T08:07:53.837Z,2.30
2023-02-11T08:12:55.809Z,2.30
2023-02-11T08:18:00.112Z,2.40
2023-02-11T08:23:05.434Z,2.50
2023-02-11T08:28:07.259Z,2.60
2023-02-11T08:33:09.114Z,2.70
2023-02-11T08:38:12.206Z,2.90
2023-02-11T08:43:14.130Z,3.00
2023-02-11T08:48:15.864Z,3.00
2023-02-11T08:53:18.973Z,3.10
2023-02-11T08:58:21.420Z,3.20
2023-02-11T09:03:23.106Z,3.40
2023-02-11T09:08:26.181Z,3.50
2023-02-11T09:13:28.002Z,3.60
2023-02-11T09:18:29.848Z,3.80
2023-02-11T09:23:33.251Z,3.80
2023-02-11T09:28:34.998Z,3.90
2023-02-11T09:33:38.570Z,4.10
2023-02-11T09:38:41.925Z,4.20
2023-02-11T09:43:46.763Z,4.40
2023-02-11T09:48:50.162Z,4.50
2023-02-11T09:59:40.593Z,4.70
2023-02-11T10:05:05.624Z,4.80
2023-02-11T10:10:17.260Z,5.10
2023-02-11T10:15:28.629Z,5.20
2023-02-11T10:20:36.540Z,5.40
2023-02-11T10:25:44.928Z,5.50
2023-02-11T10:30:56.461Z,5.50
2023-02-11T10:35:58.573Z,5.60
2023-02-11T10:41:00.324Z,5.60
2023-02-11T10:46:05.625Z,5.70
2023-02-11T10:51:14.638Z,5.70
2023-02-11T10:56:23.737Z,5.70
2023-02-11T11:01:40.447Z,5.80
2023-02-11T11:06:42.227Z,5.90
2023-02-11T11:11:51.758Z,6.10
2023-02-11T11:16:55.656Z,6.50
2023-02-11T11:21:57.498Z,6.80
2023-02-11T11:27:01.335Z,6.60
2023-02-11T11:32:20.587Z,6.30
2023-02-11T11:37:26.988Z,6.30
2023-02-11T11:42:36.216Z,6.20
2023-02-11T11:47:44.359Z,6.20
2023-02-11T11:52:56.399Z,6.30
2023-02-11T11:57:59.024Z,6.30
2023-02-11T12:03:42.890Z,6.30
2023-02-11T12:08:54.303Z,6.50
2023-02-11T12:14:06.514Z,6.80
2023-02-11T12:19:46.258Z,7.00
2023-02-11T12:25:07.076Z,7.00
2023-02-11T12:30:24.190Z,7.00
2023-02-11T12:35:36.391Z,7.00
2023-02-11T12:40:43.838Z,7.00
2023-02-11T12:46:08.300Z,6.80
2023-02-11T12:51:22.925Z,6.60
2023-02-11T12:56:30.483Z,6.50
2023-02-11T13:01:36.484Z,6.70
2023-02-11T13:06:44.361Z,6.70
2023-02-11T13:11:49.394Z,6.70
2023-02-11T13:16:51.248Z,6.80
2023-02-11T13:22:06.146Z,6.80
2023-02-11T13:27:18.030Z,6.80
2023-02-11T13:32:19.700Z,6.90
2023-02-11T13:37:24.878Z,7.00
2023-02-11T13:42:27.296Z,7.10
2023-02-11T13:47:32.146Z,7.20
2023-02-11T13:52:37.828Z,7.30
2023-02-11T13:57:40.872Z,7.20
2023-02-11T14:02:42.586Z,7.10
2023-02-11T14:08:13.931Z,7.10
2023-02-11T14:13:26.134Z,7.10
2023-02-11T14:19:05.554Z,7.10
2023-02-11T14:24:48.089Z,7.00
2023-02-11T14:30:10.773Z,6.90
2023-02-11T14:35:21.467Z,6.90
2023-02-11T14:40:30.644Z,6.90
2023-02-11T14:45:36.755Z,6.80
2023-02-11T14:50:44.602Z,6.70
2023-02-11T14:55:49.151Z,6.80
2023-02-11T15:00:54.663Z,6.80
2023-02-11T15:05:58.606Z,6.80
2023-02-11T15:11:04.400Z,6.80
2023-02-11T15:16:07.967Z,6.80
2023-02-11T15:21:10.436Z,6.90
2023-02-11T15:26:21.959Z,6.90
2023-02-11T15:31:25.778Z,6.80
2023-02-11T15:36:27.546Z,6.70
2023-02-11T15:41:37.773Z,6.80
2023-02-11T15:46:40.445Z,6.80
2023-02-11T15:51:45.965Z,6.60
2023-02-11T15:56:50.800Z,6.60
2023-02-11T16:01:54.118Z,6.50
2023-02-11T16:06:56.396Z,6.40
2023-02-11T16:12:01.580Z,6.30
2023-02-11T16:17:07.194Z,6.20
2023-02-11T16:22:14.848Z,6.10
2023-02-11T16:27:22.818Z,6.10
2023-02-11T16:32:26.958Z,6.10
2023-02-11T16:37:28.839Z,6.20
2023-02-11T16:42:32.135Z,6.20
2023-02-11T16:47:35.497Z,6.10
2023-02-11T16:52:37.763Z,6.00
2023-02-11T16:57:40.931Z,5.90
2023-02-11T17:02:43.271Z,5.90
2023-02-11T17:07:45.006Z,6.00
2023-02-11T17:12:48.478Z,5.90
2023-02-11T17:17:50.235Z,5.90
2023-02-11T17:22:52.207Z,5.90
2023-02-11T17:27:55.451Z,5.90
2023-02-11T17:32:57.417Z,5.70
2023-02-11T17:37:59.128Z,5.80
2023-02-11T17:43:52.358Z,5.80
2023-02-11T17:48:55.673Z,5.90
2023-02-11T17:53:58.717Z,5.80
2023-02-11T17:59:00.517Z,5.70
2023-02-11T18:04:04.016Z,5.80
2023-02-11T18:09:05.793Z,5.70
2023-02-11T18:14:07.965Z,5.70
2023-02-11T18:19:11.987Z,5.70
2023-02-11T18:24:13.752Z,5.70
2023-02-11T18:29:15.594Z,5.60
2023-02-11T18:34:18.802Z,5.60
2023-02-11T18:39:23.958Z,5.60
2023-02-11T18:44:26.199Z,5.60
2023-02-11T18:50:11.283Z,5.60
2023-02-11T18:55:15.426Z,5.70
2023-02-11T19:00:17.714Z,5.60
2023-02-11T19:05:19.457Z,5.50
2023-02-11T19:10:22.816Z,5.50
2023-02-11T19:15:46.720Z,5.40
2023-02-11T19:20:54.978Z,5.40
2023-02-11T19:32:02.376Z,5.40
2023-02-11T19:37:04.221Z,5.40
2023-02-11T19:42:07.601Z,5.40
2023-02-11T19:47:09.336Z,5.40
2023-02-11T19:52:11.264Z,5.40
2023-02-11T19:57:14.458Z,5.30
2023-02-11T20:02:18.161Z,5.30
2023-02-11T20:07:19.868Z,5.30
2023-02-11T20:12:22.911Z,5.20
2023-02-11T20:17:24.576Z,5.10
2023-02-11T20:22:26.245Z,5.00
2023-02-11T20:27:30.066Z,4.90
2023-02-11T20:32:32.774Z,4.80
2023-02-11T20:37:34.850Z,4.80
2023-02-11T20:42:37.923Z,4.80
2023-02-11T20:47:39.640Z,4.70
2023-02-11T20:52:41.396Z,4.70
2023-02-11T20:57:44.702Z,4.90
2023-02-11T21:02:51.210Z,5.00
2023-02-11T21:07:53.438Z,5.10
2023-02-11T21:12:56.527Z,5.10
2023-02-11T21:17:58.183Z,5.10
2023-02-11T21:22:59.850Z,5.00
2023-02-11T21:28:02.980Z,4.90
2023-02-11T21:33:04.978Z,4.70
2023-02-11T21:38:06.618Z,4.80
2023-02-11T21:43:09.662Z,4.60
2023-02-11T21:48:11.837Z,4.50
2023-02-11T21:53:14.529Z,4.50
2023-02-11T21:58:17.796Z,4.40
2023-02-11T22:03:19.587Z,4.20
2023-02-11T22:08:21.316Z,4.20
2023-02-11T22:13:24.525Z,4.10
2023-02-11T22:18:26.803Z,4.10
2023-02-11T22:23:28.695Z,4.10
2023-02-11T22:28:31.908Z,4.10
2023-02-11T22:33:33.785Z,4.20
2023-02-11T22:38:36.253Z,4.20
2023-02-11T22:43:40.903Z,4.10
2023-02-11T22:48:43.327Z,4.20
2023-02-11T22:53:48.308Z,4.10
2023-02-11T22:58:51.621Z,4.00
2023-02-11T23:03:53.370Z,4.00
2023-02-11T23:08:55.322Z,4.10
2023-02-11T23:13:58.443Z,4.20
2023-02-11T23:19:01.531Z,4.30
2023-02-11T23:24:06.772Z,4.40
2023-02-11T23:29:10.347Z,4.40
2023-02-11T23:34:13.158Z,4.40
2023-02-11T23:39:15.917Z,4.40
2023-02-11T23:44:19.057Z,4.30
2023-02-11T23:49:20.835Z,4.30
2023-02-11T23:54:23.068Z,4.10
2023-02-11T23:59:26.204Z,4.10
